sensor_id;sensor_type;location;lat;lon;timestamp;P1;durP1;ratioP1;P2;durP2;ratioP2
30681;SDS011;17439;48.092;11.842;2022-12-16T00:01:59;20.17;;;9.10;;
30681;SDS011;17439;48.092;11.842;2022-12-16T00:04:26;19.90;;;7.60;;
30681;SDS011;17439;48.092;11.842;2022-12-16T00:06:53;21.80;;;9.18;;
30681;SDS011;17439;48.092;11.842;2022-12-16T00:09:20;20.45;;;7.95;;
30681;SDS011;17439;48.092;11.842;2022-12-16T00:11:46;24.42;;;9.82;;
30681;SDS011;17439;48.092;11.842;2022-12-16T00:14:13;24.13;;;9.98;;
30681;SDS011;17439;48.092;11.842;2022-12-16T00:16:39;25.83;;;10.77;;
30681;SDS011;17439;48.092;11.842;2022-12-16T00:19:06;19.45;;;9.32;;
30681;SDS011;17439;48.092;11.842;2022-12-16T00:21:33;21.95;;;9.30;;
30681;SDS011;17439;48.092;11.842;2022-12-16T00:24:00;25.75;;;9.88;;
30681;SDS011;17439;48.092;11.842;2022-12-16T00:26:26;22.42;;;8.30;;
30681;SDS011;17439;48.092;11.842;2022-12-16T00:28:53;22.10;;;9.68;;
30681;SDS011;17439;48.092;11.842;2022-12-16T00:31:20;27.20;;;10.52;;
30681;SDS011;17439;48.092;11.842;2022-12-16T00:33:46;20.10;;;8.93;;
30681;SDS011;17439;48.092;11.842;2022-12-16T00:36:13;21.50;;;9.05;;
30681;SDS011;17439;48.092;11.842;2022-12-16T00:38:39;22.17;;;8.88;;
30681;SDS011;17439;48.092;11.842;2022-12-16T00:41:06;27.38;;;10.65;;
30681;SDS011;17439;48.092;11.842;2022-12-16T00:43:33;26.02;;;9.27;;
30681;SDS011;17439;48.092;11.842;2022-12-16T00:46:00;24.83;;;10.05;;
30681;SDS011;17439;48.092;11.842;2022-12-16T00:48:26;30.98;;;10.52;;
30681;SDS011;17439;48.092;11.842;2022-12-16T00:50:53;20.30;;;8.98;;
30681;SDS011;17439;48.092;11.842;2022-12-16T00:53:21;22.50;;;9.10;;
30681;SDS011;17439;48.092;11.842;2022-12-16T00:55:49;24.85;;;10.35;;
30681;SDS011;17439;48.092;11.842;2022-12-16T00:58:17;27.52;;;10.23;;
30681;SDS011;17439;48.092;11.842;2022-12-16T01:00:43;27.98;;;11.90;;
30681;SDS011;17439;48.092;11.842;2022-12-16T01:03:10;24.17;;;10.57;;
30681;SDS011;17439;48.092;11.842;2022-12-16T01:05:43;23.83;;;8.90;;
30681;SDS011;17439;48.092;11.842;2022-12-16T01:08:09;27.15;;;10.63;;
30681;SDS011;17439;48.092;11.842;2022-12-16T01:10:36;30.83;;;10.75;;
30681;SDS011;17439;48.092;11.842;2022-12-16T01:13:02;22.58;;;9.95;;
30681;SDS011;17439;48.092;11.842;2022-12-16T01:15:29;26.17;;;10.88;;
30681;SDS011;17439;48.092;11.842;2022-12-16T01:17:55;20.27;;;8.02;;
30681;SDS011;17439;48.092;11.842;2022-12-16T01:20:22;23.83;;;9.38;;
30681;SDS011;17439;48.092;11.842;2022-12-16T01:22:49;30.15;;;10.30;;
30681;SDS011;17439;48.092;11.842;2022-12-16T01:25:15;21.90;;;8.30;;
30681;SDS011;17439;48.092;11.842;2022-12-16T01:27:42;23.73;;;9.27;;
30681;SDS011;17439;48.092;11.842;2022-12-16T01:30:09;25.38;;;9.07;;
30681;SDS011;17439;48.092;11.842;2022-12-16T01:32:36;27.05;;;10.20;;
30681;SDS011;17439;48.092;11.842;2022-12-16T01:35:03;24.90;;;10.32;;
30681;SDS011;17439;48.092;11.842;2022-12-16T01:37:48;27.60;;;10.63;;
30681;SDS011;17439;48.092;11.842;2022-12-16T01:40:16;27.02;;;10.23;;
30681;SDS011;17439;48.092;11.842;2022-12-16T01:42:45;19.30;;;8.63;;
30681;SDS011;17439;48.092;11.842;2022-12-16T01:45:29;23.92;;;10.18;;
30681;SDS011;17439;48.092;11.842;2022-12-16T01:51:02;18.90;;;8.00;;
30681;SDS011;17439;48.092;11.842;2022-12-16T01:53:33;25.60;;;10.15;;
30681;SDS011;17439;48.092;11.842;2022-12-16T01:56:02;22.65;;;8.77;;
30681;SDS011;17439;48.092;11.842;2022-12-16T01:58:30;21.10;;;7.70;;
30681;SDS011;17439;48.092;11.842;2022-12-16T02:01:00;26.02;;;8.63;;
30681;SDS011;17439;48.092;11.842;2022-12-16T02:03:27;22.58;;;9.43;;
30681;SDS011;17439;48.092;11.842;2022-12-16T02:05:59;21.65;;;9.15;;
30681;SDS011;17439;48.092;11.842;2022-12-16T02:19:08;19.00;;;7.60;;
30681;SDS011;17439;48.092;11.842;2022-12-16T02:33:32;21.38;;;9.80;;
30681;SDS011;17439;48.092;11.842;2022-12-16T02:38:59;21.42;;;8.20;;
30681;SDS011;17439;48.092;11.842;2022-12-16T02:41:31;19.33;;;8.40;;
30681;SDS011;17439;48.092;11.842;2022-12-16T02:44:07;17.80;;;7.75;;
30681;SDS011;17439;48.092;11.842;2022-12-16T02:46:57;19.15;;;9.48;;
30681;SDS011;17439;48.092;11.842;2022-12-16T02:51:49;22.63;;;9.98;;
30681;SDS011;17439;48.092;11.842;2022-12-16T02:54:16;21.52;;;7.95;;
30681;SDS011;17439;48.092;11.842;2022-12-16T02:56:56;16.85;;;7.65;;
30681;SDS011;17439;48.092;11.842;2022-12-16T03:02:26;21.98;;;8.40;;
30681;SDS011;17439;48.092;11.842;2022-12-16T03:05:24;16.73;;;7.97;;
30681;SDS011;17439;48.092;11.842;2022-12-16T03:07:54;20.25;;;8.65;;
30681;SDS011;17439;48.092;11.842;2022-12-16T03:10:26;20.67;;;8.55;;
30681;SDS011;17439;48.092;11.842;2022-12-16T03:12:55;23.52;;;10.95;;
30681;SDS011;17439;48.092;11.842;2022-12-16T03:15:25;21.13;;;8.88;;
30681;SDS011;17439;48.092;11.842;2022-12-16T03:17:55;22.27;;;8.63;;
30681;SDS011;17439;48.092;11.842;2022-12-16T03:22:49;22.67;;;8.90;;
30681;SDS011;17439;48.092;11.842;2022-12-16T03:25:19;23.77;;;9.98;;
30681;SDS011;17439;48.092;11.842;2022-12-16T03:28:03;25.53;;;11.13;;
30681;SDS011;17439;48.092;11.842;2022-12-16T03:30:40;27.25;;;10.95;;
30681;SDS011;17439;48.092;11.842;2022-12-16T03:33:15;27.10;;;12.13;;
30681;SDS011;17439;48.092;11.842;2022-12-16T03:35:50;23.40;;;11.50;;
30681;SDS011;17439;48.092;11.842;2022-12-16T03:38:25;26.13;;;12.05;;
30681;SDS011;17439;48.092;11.842;2022-12-16T03:40:53;24.60;;;9.55;;
30681;SDS011;17439;48.092;11.842;2022-12-16T03:43:22;23.02;;;9.75;;
30681;SDS011;17439;48.092;11.842;2022-12-16T03:45:50;25.80;;;10.00;;
30681;SDS011;17439;48.092;11.842;2022-12-16T03:48:22;20.50;;;10.05;;
30681;SDS011;17439;48.092;11.842;2022-12-16T03:50:50;20.55;;;10.40;;
30681;SDS011;17439;48.092;11.842;2022-12-16T03:53:17;24.48;;;10.65;;
30681;SDS011;17439;48.092;11.842;2022-12-16T03:55:44;27.30;;;10.98;;
30681;SDS011;17439;48.092;11.842;2022-12-16T03:58:10;31.25;;;12.75;;
30681;SDS011;17439;48.092;11.842;2022-12-16T04:00:37;26.08;;;11.50;;
30681;SDS011;17439;48.092;11.842;2022-12-16T04:03:03;29.05;;;14.07;;
30681;SDS011;17439;48.092;11.842;2022-12-16T04:05:30;26.13;;;11.65;;
30681;SDS011;17439;48.092;11.842;2022-12-16T04:07:57;22.95;;;11.30;;
30681;SDS011;17439;48.092;11.842;2022-12-16T04:10:27;25.27;;;12.80;;
30681;SDS011;17439;48.092;11.842;2022-12-16T04:12:54;27.65;;;12.43;;
30681;SDS011;17439;48.092;11.842;2022-12-16T04:15:20;32.78;;;14.27;;
30681;SDS011;17439;48.092;11.842;2022-12-16T04:17:47;27.85;;;12.13;;
30681;SDS011;17439;48.092;11.842;2022-12-16T04:20:14;24.70;;;12.15;;
30681;SDS011;17439;48.092;11.842;2022-12-16T04:22:43;31.10;;;12.57;;
30681;SDS011;17439;48.092;11.842;2022-12-16T04:25:11;32.22;;;14.75;;
30681;SDS011;17439;48.092;11.842;2022-12-16T04:27:40;37.88;;;15.18;;
30681;SDS011;17439;48.092;11.842;2022-12-16T04:30:07;32.17;;;13.70;;
30681;SDS011;17439;48.092;11.842;2022-12-16T04:32:34;31.27;;;14.43;;
30681;SDS011;17439;48.092;11.842;2022-12-16T04:35:01;39.25;;;16.55;;
30681;SDS011;17439;48.092;11.842;2022-12-16T04:37:27;39.67;;;17.67;;
30681;SDS011;17439;48.092;11.842;2022-12-16T04:39:54;37.80;;;16.02;;
30681;SDS011;17439;48.092;11.842;2022-12-16T04:42:20;37.47;;;15.70;;
30681;SDS011;17439;48.092;11.842;2022-12-16T04:44:47;35.17;;;13.77;;
30681;SDS011;17439;48.092;11.842;2022-12-16T04:47:14;40.53;;;16.27;;
30681;SDS011;17439;48.092;11.842;2022-12-16T04:49:40;35.85;;;14.13;;
30681;SDS011;17439;48.092;11.842;2022-12-16T04:52:07;38.55;;;15.48;;
30681;SDS011;17439;48.092;11.842;2022-12-16T04:54:33;43.70;;;17.60;;
30681;SDS011;17439;48.092;11.842;2022-12-16T04:57:00;41.40;;;17.40;;
30681;SDS011;17439;48.092;11.842;2022-12-16T04:59:26;41.28;;;17.27;;
30681;SDS011;17439;48.092;11.842;2022-12-16T05:01:53;45.53;;;19.90;;
30681;SDS011;17439;48.092;11.842;2022-12-16T05:04:19;38.22;;;14.45;;
30681;SDS011;17439;48.092;11.842;2022-12-16T05:06:46;45.97;;;18.15;;
30681;SDS011;17439;48.092;11.842;2022-12-16T05:09:12;47.25;;;18.65;;
30681;SDS011;17439;48.092;11.842;2022-12-16T05:11:39;47.90;;;19.10;;
30681;SDS011;17439;48.092;11.842;2022-12-16T05:14:06;40.58;;;15.93;;
30681;SDS011;17439;48.092;11.842;2022-12-16T05:16:32;38.72;;;15.80;;
30681;SDS011;17439;48.092;11.842;2022-12-16T05:18:59;41.55;;;17.05;;
30681;SDS011;17439;48.092;11.842;2022-12-16T05:21:25;40.15;;;15.88;;
30681;SDS011;17439;48.092;11.842;2022-12-16T05:23:52;37.92;;;16.08;;
30681;SDS011;17439;48.092;11.842;2022-12-16T05:26:19;39.30;;;16.08;;
30681;SDS011;17439;48.092;11.842;2022-12-16T05:28:46;40.55;;;17.17;;
30681;SDS011;17439;48.092;11.842;2022-12-16T05:31:12;45.00;;;18.08;;
30681;SDS011;17439;48.092;11.842;2022-12-16T05:33:39;46.55;;;18.85;;
30681;SDS011;17439;48.092;11.842;2022-12-16T05:36:06;43.42;;;18.30;;
30681;SDS011;17439;48.092;11.842;2022-12-16T05:38:33;47.00;;;18.52;;
30681;SDS011;17439;48.092;11.842;2022-12-16T05:40:59;45.17;;;19.38;;
30681;SDS011;17439;48.092;11.842;2022-12-16T05:43:26;47.45;;;18.70;;
30681;SDS011;17439;48.092;11.842;2022-12-16T05:45:53;48.65;;;18.15;;
30681;SDS011;17439;48.092;11.842;2022-12-16T05:48:19;45.70;;;18.95;;
30681;SDS011;17439;48.092;11.842;2022-12-16T05:50:46;44.75;;;17.13;;
30681;SDS011;17439;48.092;11.842;2022-12-16T05:53:12;37.35;;;15.02;;
30681;SDS011;17439;48.092;11.842;2022-12-16T05:55:39;52.88;;;20.83;;
30681;SDS011;17439;48.092;11.842;2022-12-16T05:58:07;48.67;;;18.30;;
30681;SDS011;17439;48.092;11.842;2022-12-16T06:00:34;37.38;;;16.73;;
30681;SDS011;17439;48.092;11.842;2022-12-16T06:03:01;38.63;;;16.08;;
30681;SDS011;17439;48.092;11.842;2022-12-16T06:05:28;44.20;;;17.02;;
30681;SDS011;17439;48.092;11.842;2022-12-16T06:07:54;39.30;;;16.00;;
30681;SDS011;17439;48.092;11.842;2022-12-16T06:10:21;37.95;;;15.90;;
30681;SDS011;17439;48.092;11.842;2022-12-16T06:12:47;46.65;;;19.98;;
30681;SDS011;17439;48.092;11.842;2022-12-16T06:15:14;44.85;;;17.77;;
30681;SDS011;17439;48.092;11.842;2022-12-16T06:17:49;43.15;;;16.88;;
30681;SDS011;17439;48.092;11.842;2022-12-16T06:20:16;45.00;;;19.42;;
30681;SDS011;17439;48.092;11.842;2022-12-16T06:22:45;41.80;;;17.38;;
30681;SDS011;17439;48.092;11.842;2022-12-16T06:25:16;43.75;;;17.13;;
30681;SDS011;17439;48.092;11.842;2022-12-16T06:27:47;39.90;;;16.33;;
30681;SDS011;17439;48.092;11.842;2022-12-16T06:30:15;40.97;;;16.00;;
30681;SDS011;17439;48.092;11.842;2022-12-16T06:32:42;38.10;;;15.55;;
30681;SDS011;17439;48.092;11.842;2022-12-16T06:35:08;36.40;;;14.63;;
30681;SDS011;17439;48.092;11.842;2022-12-16T06:37:35;40.28;;;16.30;;
30681;SDS011;17439;48.092;11.842;2022-12-16T06:40:02;38.60;;;15.40;;
30681;SDS011;17439;48.092;11.842;2022-12-16T06:42:28;43.58;;;16.45;;
30681;SDS011;17439;48.092;11.842;2022-12-16T06:44:55;36.05;;;15.30;;
30681;SDS011;17439;48.092;11.842;2022-12-16T06:47:21;38.15;;;14.18;;
30681;SDS011;17439;48.092;11.842;2022-12-16T06:49:48;42.75;;;16.40;;
30681;SDS011;17439;48.092;11.842;2022-12-16T06:52:15;42.42;;;16.48;;
30681;SDS011;17439;48.092;11.842;2022-12-16T06:54:41;47.60;;;19.00;;
30681;SDS011;17439;48.092;11.842;2022-12-16T06:57:08;50.40;;;17.48;;
30681;SDS011;17439;48.092;11.842;2022-12-16T06:59:34;39.03;;;15.85;;
30681;SDS011;17439;48.092;11.842;2022-12-16T07:02:01;41.08;;;16.60;;
30681;SDS011;17439;48.092;11.842;2022-12-16T07:04:29;40.97;;;16.05;;
30681;SDS011;17439;48.092;11.842;2022-12-16T07:06:56;42.65;;;17.60;;
30681;SDS011;17439;48.092;11.842;2022-12-16T07:09:22;39.28;;;15.85;;
30681;SDS011;17439;48.092;11.842;2022-12-16T07:11:49;47.75;;;19.25;;
30681;SDS011;17439;48.092;11.842;2022-12-16T07:14:15;46.17;;;19.20;;
30681;SDS011;17439;48.092;11.842;2022-12-16T07:16:42;51.05;;;19.60;;
30681;SDS011;17439;48.092;11.842;2022-12-16T07:19:08;47.70;;;20.58;;
30681;SDS011;17439;48.092;11.842;2022-12-16T07:21:35;47.20;;;17.90;;
30681;SDS011;17439;48.092;11.842;2022-12-16T07:24:02;45.70;;;17.42;;
30681;SDS011;17439;48.092;11.842;2022-12-16T07:26:29;46.95;;;20.38;;
30681;SDS011;17439;48.092;11.842;2022-12-16T07:28:55;48.78;;;18.70;;
30681;SDS011;17439;48.092;11.842;2022-12-16T07:31:22;49.17;;;17.80;;
30681;SDS011;17439;48.092;11.842;2022-12-16T07:33:49;54.63;;;21.85;;
30681;SDS011;17439;48.092;11.842;2022-12-16T07:36:15;46.55;;;17.60;;
30681;SDS011;17439;48.092;11.842;2022-12-16T07:38:42;54.15;;;21.08;;
30681;SDS011;17439;48.092;11.842;2022-12-16T07:41:08;51.58;;;20.52;;
30681;SDS011;17439;48.092;11.842;2022-12-16T07:43:35;56.33;;;21.90;;
30681;SDS011;17439;48.092;11.842;2022-12-16T07:46:02;50.60;;;20.25;;
30681;SDS011;17439;48.092;11.842;2022-12-16T07:48:28;62.25;;;23.52;;
30681;SDS011;17439;48.092;11.842;2022-12-16T07:50:55;58.97;;;22.60;;
30681;SDS011;17439;48.092;11.842;2022-12-16T07:53:22;65.05;;;24.38;;
30681;SDS011;17439;48.092;11.842;2022-12-16T07:55:54;58.53;;;22.30;;
30681;SDS011;17439;48.092;11.842;2022-12-16T07:58:21;56.70;;;23.05;;
30681;SDS011;17439;48.092;11.842;2022-12-16T08:00:48;59.42;;;21.27;;
30681;SDS011;17439;48.092;11.842;2022-12-16T08:03:14;68.30;;;25.02;;
30681;SDS011;17439;48.092;11.842;2022-12-16T08:05:41;63.10;;;22.02;;
30681;SDS011;17439;48.092;11.842;2022-12-16T08:08:07;62.08;;;22.90;;
30681;SDS011;17439;48.092;11.842;2022-12-16T08:10:34;65.57;;;24.25;;
30681;SDS011;17439;48.092;11.842;2022-12-16T08:13:01;53.25;;;21.10;;
30681;SDS011;17439;48.092;11.842;2022-12-16T08:15:29;56.80;;;22.92;;
30681;SDS011;17439;48.092;11.842;2022-12-16T08:17:56;52.88;;;20.83;;
30681;SDS011;17439;48.092;11.842;2022-12-16T08:20:22;59.05;;;22.20;;
30681;SDS011;17439;48.092;11.842;2022-12-16T08:22:49;58.00;;;23.60;;
30681;SDS011;17439;48.092;11.842;2022-12-16T08:25:16;58.90;;;23.98;;
30681;SDS011;17439;48.092;11.842;2022-12-16T08:27:43;65.47;;;27.08;;
30681;SDS011;17439;48.092;11.842;2022-12-16T08:30:09;78.93;;;25.48;;
30681;SDS011;17439;48.092;11.842;2022-12-16T08:32:36;59.60;;;23.20;;
30681;SDS011;17439;48.092;11.842;2022-12-16T08:35:03;57.72;;;21.45;;
30681;SDS011;17439;48.092;11.842;2022-12-16T08:37:30;54.55;;;18.05;;
30681;SDS011;17439;48.092;11.842;2022-12-16T08:39:56;59.13;;;23.83;;
30681;SDS011;17439;48.092;11.842;2022-12-16T08:42:43;63.15;;;23.85;;
30681;SDS011;17439;48.092;11.842;2022-12-16T08:45:10;55.75;;;21.08;;
30681;SDS011;17439;48.092;11.842;2022-12-16T08:47:36;54.95;;;20.98;;
30681;SDS011;17439;48.092;11.842;2022-12-16T08:50:03;58.03;;;22.15;;
30681;SDS011;17439;48.092;11.842;2022-12-16T08:52:30;48.72;;;19.08;;
30681;SDS011;17439;48.092;11.842;2022-12-16T08:54:57;53.25;;;19.83;;
30681;SDS011;17439;48.092;11.842;2022-12-16T08:57:23;63.03;;;23.80;;
30681;SDS011;17439;48.092;11.842;2022-12-16T08:59:50;55.08;;;19.45;;
30681;SDS011;17439;48.092;11.842;2022-12-16T09:02:16;51.03;;;21.17;;
30681;SDS011;17439;48.092;11.842;2022-12-16T09:04:44;50.15;;;18.45;;
30681;SDS011;17439;48.092;11.842;2022-12-16T09:07:10;57.60;;;21.75;;
30681;SDS011;17439;48.092;11.842;2022-12-16T09:09:37;65.60;;;24.35;;
30681;SDS011;17439;48.092;11.842;2022-12-16T09:12:03;52.58;;;22.20;;
30681;SDS011;17439;48.092;11.842;2022-12-16T09:14:30;51.15;;;19.48;;
30681;SDS011;17439;48.092;11.842;2022-12-16T09:16:57;53.47;;;21.00;;
30681;SDS011;17439;48.092;11.842;2022-12-16T09:19:23;49.47;;;19.08;;
30681;SDS011;17439;48.092;11.842;2022-12-16T09:21:50;55.05;;;23.63;;
30681;SDS011;17439;48.092;11.842;2022-12-16T09:24:17;56.60;;;21.92;;
30681;SDS011;17439;48.092;11.842;2022-12-16T09:26:43;51.40;;;19.77;;
30681;SDS011;17439;48.092;11.842;2022-12-16T09:29:10;44.55;;;19.20;;
30681;SDS011;17439;48.092;11.842;2022-12-16T09:31:36;53.92;;;20.70;;
30681;SDS011;17439;48.092;11.842;2022-12-16T09:34:03;55.78;;;21.80;;
30681;SDS011;17439;48.092;11.842;2022-12-16T09:36:30;61.92;;;22.50;;
30681;SDS011;17439;48.092;11.842;2022-12-16T09:38:56;63.75;;;23.85;;
30681;SDS011;17439;48.092;11.842;2022-12-16T09:47:03;56.53;;;21.20;;
30681;SDS011;17439;48.092;11.842;2022-12-16T09:49:50;49.75;;;19.52;;
30681;SDS011;17439;48.092;11.842;2022-12-16T09:52:17;45.92;;;18.25;;
30681;SDS011;17439;48.092;11.842;2022-12-16T09:54:46;62.88;;;24.08;;
30681;SDS011;17439;48.092;11.842;2022-12-16T09:57:13;64.07;;;23.73;;
30681;SDS011;17439;48.092;11.842;2022-12-16T09:59:40;53.58;;;21.05;;
30681;SDS011;17439;48.092;11.842;2022-12-16T10:02:15;49.55;;;19.27;;
30681;SDS011;17439;48.092;11.842;2022-12-16T10:04:45;61.20;;;23.13;;
30681;SDS011;17439;48.092;11.842;2022-12-16T10:07:19;54.92;;;20.52;;
30681;SDS011;17439;48.092;11.842;2022-12-16T10:12:51;53.35;;;21.13;;
30681;SDS011;17439;48.092;11.842;2022-12-16T10:18:28;51.28;;;20.63;;
30681;SDS011;17439;48.092;11.842;2022-12-16T10:21:04;47.10;;;18.23;;
30681;SDS011;17439;48.092;11.842;2022-12-16T10:23:38;45.42;;;19.73;;
30681;SDS011;17439;48.092;11.842;2022-12-16T10:29:24;42.88;;;17.60;;
30681;SDS011;17439;48.092;11.842;2022-12-16T10:31:53;46.00;;;20.98;;
30681;SDS011;17439;48.092;11.842;2022-12-16T10:34:24;47.13;;;18.23;;
30681;SDS011;17439;48.092;11.842;2022-12-16T10:36:53;45.15;;;18.67;;
30681;SDS011;17439;48.092;11.842;2022-12-16T10:39:26;54.63;;;22.15;;
30681;SDS011;17439;48.092;11.842;2022-12-16T10:41:57;56.55;;;22.60;;
30681;SDS011;17439;48.092;11.842;2022-12-16T10:44:34;57.78;;;23.50;;
30681;SDS011;17439;48.092;11.842;2022-12-16T10:47:20;57.78;;;21.20;;
30681;SDS011;17439;48.092;11.842;2022-12-16T10:49:47;54.58;;;22.75;;
30681;SDS011;17439;48.092;11.842;2022-12-16T10:52:20;53.13;;;20.73;;
30681;SDS011;17439;48.092;11.842;2022-12-16T10:55:33;64.20;;;22.70;;
30681;SDS011;17439;48.092;11.842;2022-12-16T10:57:57;62.97;;;25.08;;
30681;SDS011;17439;48.092;11.842;2022-12-16T11:00:42;52.92;;;21.10;;
30681;SDS011;17439;48.092;11.842;2022-12-16T11:03:19;49.80;;;19.65;;
30681;SDS011;17439;48.092;11.842;2022-12-16T11:05:48;53.28;;;22.27;;
30681;SDS011;17439;48.092;11.842;2022-12-16T11:08:29;53.30;;;20.10;;
30681;SDS011;17439;48.092;11.842;2022-12-16T11:10:57;55.38;;;20.17;;
30681;SDS011;17439;48.092;11.842;2022-12-16T11:13:40;46.83;;;20.08;;
30681;SDS011;17439;48.092;11.842;2022-12-16T11:18:47;53.53;;;22.92;;
30681;SDS011;17439;48.092;11.842;2022-12-16T11:21:20;44.15;;;18.23;;
30681;SDS011;17439;48.092;11.842;2022-12-16T11:23:47;46.60;;;19.48;;
30681;SDS011;17439;48.092;11.842;2022-12-16T11:26:30;39.22;;;17.42;;
30681;SDS011;17439;48.092;11.842;2022-12-16T11:29:03;47.25;;;18.75;;
30681;SDS011;17439;48.092;11.842;2022-12-16T11:31:36;44.95;;;17.85;;
30681;SDS011;17439;48.092;11.842;2022-12-16T11:34:03;52.00;;;21.75;;
30681;SDS011;17439;48.092;11.842;2022-12-16T11:36:31;57.20;;;21.02;;
30681;SDS011;17439;48.092;11.842;2022-12-16T11:38:59;55.05;;;20.20;;
30681;SDS011;17439;48.092;11.842;2022-12-16T11:41:28;45.00;;;19.10;;
30681;SDS011;17439;48.092;11.842;2022-12-16T11:43:59;56.30;;;22.83;;
30681;SDS011;17439;48.092;11.842;2022-12-16T11:46:27;45.88;;;19.90;;
30681;SDS011;17439;48.092;11.842;2022-12-16T11:49:01;51.17;;;20.73;;
30681;SDS011;17439;48.092;11.842;2022-12-16T11:51:31;53.58;;;20.95;;
30681;SDS011;17439;48.092;11.842;2022-12-16T11:54:12;50.88;;;18.75;;
30681;SDS011;17439;48.092;11.842;2022-12-16T11:56:46;45.25;;;18.80;;
30681;SDS011;17439;48.092;11.842;2022-12-16T11:59:21;50.00;;;20.83;;
30681;SDS011;17439;48.092;11.842;2022-12-16T12:01:57;48.92;;;19.83;;
30681;SDS011;17439;48.092;11.842;2022-12-16T12:04:26;44.10;;;18.50;;
30681;SDS011;17439;48.092;11.842;2022-12-16T12:07:29;43.50;;;18.50;;
30681;SDS011;17439;48.092;11.842;2022-12-16T12:12:51;52.70;;;19.90;;
30681;SDS011;17439;48.092;11.842;2022-12-16T12:15:27;49.13;;;21.58;;
30681;SDS011;17439;48.092;11.842;2022-12-16T12:18:22;46.38;;;17.65;;
30681;SDS011;17439;48.092;11.842;2022-12-16T12:21:13;52.75;;;21.25;;
30681;SDS011;17439;48.092;11.842;2022-12-16T12:26:30;53.25;;;21.88;;
30681;SDS011;17439;48.092;11.842;2022-12-16T12:29:17;41.70;;;18.50;;
30681;SDS011;17439;48.092;11.842;2022-12-16T12:34:34;48.28;;;18.75;;
30681;SDS011;17439;48.092;11.842;2022-12-16T12:37:22;53.35;;;19.70;;
30681;SDS011;17439;48.092;11.842;2022-12-16T12:39:55;42.90;;;17.73;;
30681;SDS011;17439;48.092;11.842;2022-12-16T12:48:36;55.90;;;21.02;;
30681;SDS011;17439;48.092;11.842;2022-12-16T12:51:25;48.30;;;19.73;;
30681;SDS011;17439;48.092;11.842;2022-12-16T12:56:50;41.83;;;17.48;;
30681;SDS011;17439;48.092;11.842;2022-12-16T12:59:23;43.30;;;18.10;;
30681;SDS011;17439;48.092;11.842;2022-12-16T13:01:53;44.35;;;17.42;;
30681;SDS011;17439;48.092;11.842;2022-12-16T13:04:22;47.70;;;19.23;;
30681;SDS011;17439;48.092;11.842;2022-12-16T13:06:49;46.17;;;19.47;;
30681;SDS011;17439;48.092;11.842;2022-12-16T13:09:34;64.63;;;26.88;;
30681;SDS011;17439;48.092;11.842;2022-12-16T13:16:58;50.88;;;20.48;;
30681;SDS011;17439;48.092;11.842;2022-12-16T13:21:54;55.97;;;21.10;;
30681;SDS011;17439;48.092;11.842;2022-12-16T13:26:59;42.13;;;18.55;;
30681;SDS011;17439;48.092;11.842;2022-12-16T13:29:27;45.78;;;18.90;;
30681;SDS011;17439;48.092;11.842;2022-12-16T13:31:58;39.72;;;16.75;;
30681;SDS011;17439;48.092;11.842;2022-12-16T13:34:27;43.13;;;17.30;;
30681;SDS011;17439;48.092;11.842;2022-12-16T13:36:55;49.63;;;18.27;;
30681;SDS011;17439;48.092;11.842;2022-12-16T13:39:26;50.38;;;19.00;;
30681;SDS011;17439;48.092;11.842;2022-12-16T13:41:58;44.97;;;17.48;;
30681;SDS011;17439;48.092;11.842;2022-12-16T13:47:29;42.22;;;18.05;;
30681;SDS011;17439;48.092;11.842;2022-12-16T13:49:56;46.00;;;18.10;;
30681;SDS011;17439;48.092;11.842;2022-12-16T13:54:59;46.47;;;18.45;;
30681;SDS011;17439;48.092;11.842;2022-12-16T13:57:36;43.95;;;17.73;;
30681;SDS011;17439;48.092;11.842;2022-12-16T14:00:23;44.85;;;17.85;;
30681;SDS011;17439;48.092;11.842;2022-12-16T14:02:57;40.70;;;17.98;;
30681;SDS011;17439;48.092;11.842;2022-12-16T14:05:27;39.20;;;16.42;;
30681;SDS011;17439;48.092;11.842;2022-12-16T14:07:55;38.10;;;17.88;;
30681;SDS011;17439;48.092;11.842;2022-12-16T14:13:00;48.60;;;19.38;;
30681;SDS011;17439;48.092;11.842;2022-12-16T14:15:37;36.40;;;16.42;;
30681;SDS011;17439;48.092;11.842;2022-12-16T14:18:07;35.03;;;16.70;;
30681;SDS011;17439;48.092;11.842;2022-12-16T14:20:53;44.35;;;17.65;;
30681;SDS011;17439;48.092;11.842;2022-12-16T14:23:35;39.75;;;17.40;;
30681;SDS011;17439;48.092;11.842;2022-12-16T14:26:22;37.13;;;16.25;;
30681;SDS011;17439;48.092;11.842;2022-12-16T14:28:49;36.63;;;15.57;;
30681;SDS011;17439;48.092;11.842;2022-12-16T14:31:35;42.90;;;16.42;;
30681;SDS011;17439;48.092;11.842;2022-12-16T14:34:14;49.08;;;16.85;;
30681;SDS011;17439;48.092;11.842;2022-12-16T14:36:42;39.95;;;16.98;;
30681;SDS011;17439;48.092;11.842;2022-12-16T14:39:11;44.97;;;17.33;;
30681;SDS011;17439;48.092;11.842;2022-12-16T14:41:48;39.95;;;16.55;;
30681;SDS011;17439;48.092;11.842;2022-12-16T14:44:17;38.92;;;16.48;;
30681;SDS011;17439;48.092;11.842;2022-12-16T14:46:51;35.22;;;14.85;;
30681;SDS011;17439;48.092;11.842;2022-12-16T14:49:25;44.60;;;18.20;;
30681;SDS011;17439;48.092;11.842;2022-12-16T14:51:53;51.78;;;18.20;;
30681;SDS011;17439;48.092;11.842;2022-12-16T14:56:55;38.75;;;15.95;;
30681;SDS011;17439;48.092;11.842;2022-12-16T14:59:22;39.03;;;15.57;;
30681;SDS011;17439;48.092;11.842;2022-12-16T15:01:49;39.75;;;15.43;;
30681;SDS011;17439;48.092;11.842;2022-12-16T15:04:18;40.15;;;15.00;;
30681;SDS011;17439;48.092;11.842;2022-12-16T15:06:47;35.45;;;14.00;;
30681;SDS011;17439;48.092;11.842;2022-12-16T15:09:20;39.05;;;15.35;;
30681;SDS011;17439;48.092;11.842;2022-12-16T15:11:52;37.90;;;15.00;;
30681;SDS011;17439;48.092;11.842;2022-12-16T15:14:22;44.35;;;18.08;;
30681;SDS011;17439;48.092;11.842;2022-12-16T15:16:54;38.63;;;15.38;;
30681;SDS011;17439;48.092;11.842;2022-12-16T15:21:49;34.25;;;13.63;;
30681;SDS011;17439;48.092;11.842;2022-12-16T15:24:17;40.05;;;16.35;;
30681;SDS011;17439;48.092;11.842;2022-12-16T15:26:45;30.45;;;13.82;;
30681;SDS011;17439;48.092;11.842;2022-12-16T15:32:01;38.33;;;14.52;;
30681;SDS011;17439;48.092;11.842;2022-12-16T15:34:50;42.25;;;14.43;;
30681;SDS011;17439;48.092;11.842;2022-12-16T15:37:18;46.58;;;15.48;;
30681;SDS011;17439;48.092;11.842;2022-12-16T15:39:45;39.67;;;15.15;;
30681;SDS011;17439;48.092;11.842;2022-12-16T15:42:19;43.08;;;17.40;;
30681;SDS011;17439;48.092;11.842;2022-12-16T15:44:53;44.85;;;16.05;;
30681;SDS011;17439;48.092;11.842;2022-12-16T15:47:37;46.08;;;16.98;;
30681;SDS011;17439;48.092;11.842;2022-12-16T15:50:04;38.55;;;14.65;;
30681;SDS011;17439;48.092;11.842;2022-12-16T15:52:33;40.17;;;16.05;;
30681;SDS011;17439;48.092;11.842;2022-12-16T15:55:20;36.50;;;14.93;;
30681;SDS011;17439;48.092;11.842;2022-12-16T15:57:54;42.53;;;15.80;;
30681;SDS011;17439;48.092;11.842;2022-12-16T16:00:24;37.10;;;14.93;;
30681;SDS011;17439;48.092;11.842;2022-12-16T16:02:53;44.03;;;16.92;;
30681;SDS011;17439;48.092;11.842;2022-12-16T16:05:23;43.55;;;15.50;;